sensor_id;sensor_type;location;lat;lon;timestamp;pressure;altitude;pressure_sealevel;temperature;humidity
11971;BME280;6045;42.682;23.294;2022-09-16T00:00:22;94117.50;;;22.92;53.69
11971;BME280;6045;42.682;23.294;2022-09-16T00:02:50;94119.28;;;22.88;53.08
11971;BME280;6045;42.682;23.294;2022-09-16T00:05:18;94117.66;;;22.87;53.11
11971;BME280;6045;42.682;23.294;2022-09-16T00:07:45;94121.06;;;22.93;53.82
11971;BME280;6045;42.682;23.294;2022-09-16T00:10:11;94112.41;;;22.91;53.58
11971;BME280;6045;42.682;23.294;2022-09-16T00:12:39;94118.16;;;22.89;52.87
11971;BME280;6045;42.682;23.294;2022-09-16T00:15:08;94122.97;;;22.92;53.37
11971;BME280;6045;42.682;23.294;2022-09-16T00:17:35;94127.31;;;22.93;52.90
11971;BME280;6045;42.682;23.294;2022-09-16T00:20:03;94133.88;;;22.92;53.56
11971;BME280;6045;42.682;23.294;2022-09-16T00:22:30;94140.28;;;22.79;53.82
11971;BME280;6045;42.682;23.294;2022-09-16T00:24:57;94135.78;;;22.75;53.80
11971;BME280;6045;42.682;23.294;2022-09-16T00:27:24;94131.09;;;22.75;53.81
11971;BME280;6045;42.682;23.294;2022-09-16T00:29:51;94127.56;;;22.66;53.16
11971;BME280;6045;42.682;23.294;2022-09-16T00:32:19;94120.28;;;22.53;53.62
11971;BME280;6045;42.682;23.294;2022-09-16T00:34:46;94106.34;;;22.55;54.59
11971;BME280;6045;42.682;23.294;2022-09-16T00:37:13;94113.41;;;22.56;54.09
11971;BME280;6045;42.682;23.294;2022-09-16T00:39:40;94107.31;;;22.50;54.81
11971;BME280;6045;42.682;23.294;2022-09-16T00:42:09;94120.97;;;22.59;54.74
11971;BME280;6045;42.682;23.294;2022-09-16T00:45:04;94126.59;;;22.62;55.41
11971;BME280;6045;42.682;23.294;2022-09-16T00:47:41;94127.88;;;22.65;55.57
11971;BME280;6045;42.682;23.294;2022-09-16T00:50:11;94115.94;;;22.52;55.69
11971;BME280;6045;42.682;23.294;2022-09-16T00:52:40;94116.59;;;22.49;54.72
11971;BME280;6045;42.682;23.294;2022-09-16T00:55:10;94122.84;;;22.49;55.26
11971;BME280;6045;42.682;23.294;2022-09-16T00:57:39;94128.13;;;22.55;54.73
11971;BME280;6045;42.682;23.294;2022-09-16T01:00:08;94129.31;;;22.62;54.90
11971;BME280;6045;42.682;23.294;2022-09-16T01:02:40;94139.03;;;22.46;54.98
11971;BME280;6045;42.682;23.294;2022-09-16T01:05:10;94126.03;;;22.43;55.02
11971;BME280;6045;42.682;23.294;2022-09-16T01:07:42;94123.16;;;22.39;55.33
11971;BME280;6045;42.682;23.294;2022-09-16T01:10:09;94134.94;;;22.26;54.65
11971;BME280;6045;42.682;23.294;2022-09-16T01:12:39;94129.31;;;22.23;55.59
11971;BME280;6045;42.682;23.294;2022-09-16T01:15:09;94131.41;;;22.26;55.20
11971;BME280;6045;42.682;23.294;2022-09-16T01:17:48;94133.50;;;22.29;55.46
11971;BME280;6045;42.682;23.294;2022-09-16T01:20:43;94129.31;;;22.23;55.82
11971;BME280;6045;42.682;23.294;2022-09-16T01:23:40;94135.75;;;22.27;56.77
11971;BME280;6045;42.682;23.294;2022-09-16T01:26:27;94150.28;;;22.22;57.10
11971;BME280;6045;42.682;23.294;2022-09-16T01:29:20;94137.00;;;22.21;57.15
11971;BME280;6045;42.682;23.294;2022-09-16T01:31:58;94141.00;;;22.23;56.50
11971;BME280;6045;42.682;23.294;2022-09-16T01:34:36;94135.88;;;22.22;56.94
11971;BME280;6045;42.682;23.294;2022-09-16T01:37:14;94131.38;;;22.17;57.41
11971;BME280;6045;42.682;23.294;2022-09-16T01:39:48;94118.69;;;22.13;56.83
11971;BME280;6045;42.682;23.294;2022-09-16T01:42:31;94121.81;;;21.98;56.14
11971;BME280;6045;42.682;23.294;2022-09-16T01:45:04;94120.84;;;21.94;56.61
11971;BME280;6045;42.682;23.294;2022-09-16T01:47:36;94120.84;;;21.94;55.77
11971;BME280;6045;42.682;23.294;2022-09-16T01:50:11;94124.06;;;21.96;55.92
11971;BME280;6045;42.682;23.294;2022-09-16T01:52:46;94118.97;;;22.03;56.28
11971;BME280;6045;42.682;23.294;2022-09-16T01:55:19;94115.78;;;22.09;56.25
11971;BME280;6045;42.682;23.294;2022-09-16T01:57:52;94115.84;;;22.18;56.39
11971;BME280;6045;42.682;23.294;2022-09-16T02:00:22;94116.00;;;22.21;56.50
11971;BME280;6045;42.682;23.294;2022-09-16T02:02:53;94114.63;;;22.32;55.52
11971;BME280;6045;42.682;23.294;2022-09-16T02:05:25;94112.63;;;22.16;56.68
11971;BME280;6045;42.682;23.294;2022-09-16T02:07:58;94117.53;;;22.05;56.24
11971;BME280;6045;42.682;23.294;2022-09-16T02:10:28;94117.50;;;21.97;56.67
11971;BME280;6045;42.682;23.294;2022-09-16T02:13:07;94113.72;;;22.06;55.93
11971;BME280;6045;42.682;23.294;2022-09-16T02:15:38;94120.88;;;22.02;57.44
11971;BME280;6045;42.682;23.294;2022-09-16T02:18:09;94110.94;;;21.98;56.35
11971;BME280;6045;42.682;23.294;2022-09-16T02:20:39;94117.38;;;22.02;57.33
11971;BME280;6045;42.682;23.294;2022-09-16T02:23:15;94113.16;;;21.96;57.51
11971;BME280;6045;42.682;23.294;2022-09-16T02:25:45;94106.50;;;22.02;57.38
11971;BME280;6045;42.682;23.294;2022-09-16T02:28:16;94112.09;;;22.05;57.63
11971;BME280;6045;42.682;23.294;2022-09-16T02:30:49;94109.16;;;21.93;56.98
11971;BME280;6045;42.682;23.294;2022-09-16T02:33:22;94128.41;;;21.97;56.83
11971;BME280;6045;42.682;23.294;2022-09-16T02:35:51;94138.16;;;21.75;56.85
11971;BME280;6045;42.682;23.294;2022-09-16T02:38:21;94129.16;;;21.66;57.28
11971;BME280;6045;42.682;23.294;2022-09-16T02:40:52;94127.41;;;21.70;57.55
11971;BME280;6045;42.682;23.294;2022-09-16T02:43:20;94135.81;;;21.83;58.23
11971;BME280;6045;42.682;23.294;2022-09-16T02:45:51;94130.66;;;21.81;57.37
11971;BME280;6045;42.682;23.294;2022-09-16T02:48:30;94126.78;;;21.73;56.97
11971;BME280;6045;42.682;23.294;2022-09-16T02:51:12;94127.41;;;21.70;57.82
11971;BME280;6045;42.682;23.294;2022-09-16T02:53:45;94134.72;;;21.61;57.50
11971;BME280;6045;42.682;23.294;2022-09-16T02:56:18;94142.25;;;21.42;58.00
11971;BME280;6045;42.682;23.294;2022-09-16T02:58:46;94136.00;;;21.42;57.90
11971;BME280;6045;42.682;23.294;2022-09-16T03:01:13;94149.69;;;21.50;58.46
11971;BME280;6045;42.682;23.294;2022-09-16T03:03:41;94155.63;;;21.52;58.60
11971;BME280;6045;42.682;23.294;2022-09-16T03:06:17;94151.47;;;21.55;59.30
11971;BME280;6045;42.682;23.294;2022-09-16T03:08:45;94159.84;;;21.67;57.77
11971;BME280;6045;42.682;23.294;2022-09-16T03:11:27;94158.31;;;21.74;58.49
11971;BME280;6045;42.682;23.294;2022-09-16T03:14:11;94167.59;;;21.96;61.25
11971;BME280;6045;42.682;23.294;2022-09-16T03:16:48;94169.38;;;22.00;57.93
11971;BME280;6045;42.682;23.294;2022-09-16T03:19:24;94172.59;;;22.02;57.71
11971;BME280;6045;42.682;23.294;2022-09-16T03:21:57;94170.56;;;22.08;57.30
11971;BME280;6045;42.682;23.294;2022-09-16T03:24:32;94178.75;;;22.16;58.82
11971;BME280;6045;42.682;23.294;2022-09-16T03:27:08;94168.88;;;22.20;57.74
11971;BME280;6045;42.682;23.294;2022-09-16T03:29:39;94169.16;;;22.19;57.79
11971;BME280;6045;42.682;23.294;2022-09-16T03:32:12;94153.50;;;22.24;58.42
11971;BME280;6045;42.682;23.294;2022-09-16T03:34:46;94150.63;;;22.21;58.60
11971;BME280;6045;42.682;23.294;2022-09-16T03:37:16;94142.09;;;22.14;58.06
11971;BME280;6045;42.682;23.294;2022-09-16T03:39:48;94147.38;;;22.19;56.88
11971;BME280;6045;42.682;23.294;2022-09-16T03:42:18;94148.25;;;22.28;63.58
11971;BME280;6045;42.682;23.294;2022-09-16T03:44:45;94136.44;;;22.49;63.53
11971;BME280;6045;42.682;23.294;2022-09-16T03:47:12;94127.06;;;22.64;59.06
11971;BME280;6045;42.682;23.294;2022-09-16T03:49:38;94124.09;;;22.91;62.42
11971;BME280;6045;42.682;23.294;2022-09-16T03:52:07;94121.84;;;23.10;64.15
11971;BME280;6045;42.682;23.294;2022-09-16T03:54:35;94119.31;;;23.23;62.92
11971;BME280;6045;42.682;23.294;2022-09-16T03:57:02;94125.75;;;23.27;57.06
11971;BME280;6045;42.682;23.294;2022-09-16T03:59:29;94134.22;;;23.25;63.03
11971;BME280;6045;42.682;23.294;2022-09-16T04:01:56;94143.41;;;23.38;61.09
11971;BME280;6045;42.682;23.294;2022-09-16T04:04:22;94151.59;;;23.46;62.84
11971;BME280;6045;42.682;23.294;2022-09-16T04:06:49;94155.09;;;23.55;59.31
11971;BME280;6045;42.682;23.294;2022-09-16T04:09:17;94158.97;;;23.63;57.13
11971;BME280;6045;42.682;23.294;2022-09-16T04:11:44;94161.06;;;23.40;54.51
11971;BME280;6045;42.682;23.294;2022-09-16T04:14:11;94175.09;;;22.99;54.94
11971;BME280;6045;42.682;23.294;2022-09-16T04:16:38;94171.88;;;22.49;57.67
11971;BME280;6045;42.682;23.294;2022-09-16T04:19:04;94177.06;;;22.29;57.83
11971;BME280;6045;42.682;23.294;2022-09-16T04:21:31;94181.53;;;22.25;57.17
11971;BME280;6045;42.682;23.294;2022-09-16T04:23:58;94190.91;;;22.10;57.51
11971;BME280;6045;42.682;23.294;2022-09-16T04:26:26;94205.34;;;22.11;57.55
11971;BME280;6045;42.682;23.294;2022-09-16T04:28:53;94203.59;;;22.15;58.05
11971;BME280;6045;42.682;23.294;2022-09-16T04:31:20;94195.66;;;22.27;59.44
11971;BME280;6045;42.682;23.294;2022-09-16T04:33:47;94191.88;;;22.45;59.36
11971;BME280;6045;42.682;23.294;2022-09-16T04:36:15;94193.91;;;22.62;56.62
11971;BME280;6045;42.682;23.294;2022-09-16T04:38:44;94188.19;;;22.72;55.98
11971;BME280;6045;42.682;23.294;2022-09-16T04:41:13;94186.75;;;22.74;56.42
11971;BME280;6045;42.682;23.294;2022-09-16T04:43:42;94181.69;;;22.59;55.77
11971;BME280;6045;42.682;23.294;2022-09-16T04:46:09;94193.09;;;22.61;57.17
11971;BME280;6045;42.682;23.294;2022-09-16T04:48:36;94190.38;;;22.61;56.28
11971;BME280;6045;42.682;23.294;2022-09-16T04:51:05;94190.72;;;22.68;55.76
11971;BME280;6045;42.682;23.294;2022-09-16T04:53:33;94207.75;;;22.82;58.71
11971;BME280;6045;42.682;23.294;2022-09-16T04:56:04;94206.06;;;23.03;58.94
11971;BME280;6045;42.682;23.294;2022-09-16T04:58:31;94199.50;;;23.04;56.87
11971;BME280;6045;42.682;23.294;2022-09-16T05:01:05;94208.47;;;23.13;56.62
11971;BME280;6045;42.682;23.294;2022-09-16T05:03:32;94200.44;;;23.08;55.87
11971;BME280;6045;42.682;23.294;2022-09-16T05:06:07;94186.81;;;23.00;55.16
11971;BME280;6045;42.682;23.294;2022-09-16T05:08:34;94191.50;;;23.17;55.53
11971;BME280;6045;42.682;23.294;2022-09-16T05:11:05;94191.03;;;23.23;54.63
11971;BME280;6045;42.682;23.294;2022-09-16T05:13:32;94183.03;;;23.35;54.37
11971;BME280;6045;42.682;23.294;2022-09-16T05:16:05;94188.03;;;23.50;53.74
11971;BME280;6045;42.682;23.294;2022-09-16T05:18:33;94188.03;;;23.76;54.30
11971;BME280;6045;42.682;23.294;2022-09-16T05:21:01;94179.00;;;24.01;54.29
11971;BME280;6045;42.682;23.294;2022-09-16T05:23:29;94180.41;;;24.24;53.41
11971;BME280;6045;42.682;23.294;2022-09-16T05:26:02;94170.50;;;24.58;54.16
11971;BME280;6045;42.682;23.294;2022-09-16T05:28:29;94171.56;;;24.82;54.14
11971;BME280;6045;42.682;23.294;2022-09-16T05:31:08;94185.94;;;25.00;53.77
11971;BME280;6045;42.682;23.294;2022-09-16T05:33:35;94174.97;;;25.29;52.55
11971;BME280;6045;42.682;23.294;2022-09-16T05:36:06;94169.91;;;25.60;50.68
11971;BME280;6045;42.682;23.294;2022-09-16T05:38:35;94164.50;;;25.72;51.00
11971;BME280;6045;42.682;23.294;2022-09-16T05:41:06;94165.97;;;25.70;51.92
11971;BME280;6045;42.682;23.294;2022-09-16T05:43:33;94160.66;;;25.73;52.20
11971;BME280;6045;42.682;23.294;2022-09-16T05:46:01;94160.50;;;25.91;51.63
11971;BME280;6045;42.682;23.294;2022-09-16T05:48:29;94162.91;;;26.25;48.96
11971;BME280;6045;42.682;23.294;2022-09-16T05:50:58;94165.25;;;26.59;48.07
11971;BME280;6045;42.682;23.294;2022-09-16T05:53:27;94166.00;;;26.80;46.60
11971;BME280;6045;42.682;23.294;2022-09-16T05:55:55;94170.34;;;27.05;47.78
11971;BME280;6045;42.682;23.294;2022-09-16T05:58:23;94167.38;;;27.10;44.24
11971;BME280;6045;42.682;23.294;2022-09-16T06:00:50;94172.72;;;27.07;44.24
11971;BME280;6045;42.682;23.294;2022-09-16T06:03:17;94167.91;;;27.28;45.99
11971;BME280;6045;42.682;23.294;2022-09-16T06:05:45;94170.34;;;27.18;43.46
11971;BME280;6045;42.682;23.294;2022-09-16T06:08:12;94159.88;;;27.35;45.09
11971;BME280;6045;42.682;23.294;2022-09-16T06:10:39;94164.84;;;27.82;42.90
11971;BME280;6045;42.682;23.294;2022-09-16T06:13:06;94168.63;;;28.17;41.89
11971;BME280;6045;42.682;23.294;2022-09-16T06:15:33;94171.97;;;28.54;42.44
11971;BME280;6045;42.682;23.294;2022-09-16T06:18:00;94164.84;;;28.53;38.01
11971;BME280;6045;42.682;23.294;2022-09-16T06:20:27;94159.38;;;28.09;39.42
11971;BME280;6045;42.682;23.294;2022-09-16T06:22:55;94152.84;;;27.74;39.86
11971;BME280;6045;42.682;23.294;2022-09-16T06:25:23;94156.19;;;27.67;41.27
11971;BME280;6045;42.682;23.294;2022-09-16T06:27:50;94155.84;;;27.69;41.28
11971;BME280;6045;42.682;23.294;2022-09-16T06:30:17;94155.84;;;27.69;41.59
11971;BME280;6045;42.682;23.294;2022-09-16T06:32:43;94155.44;;;27.83;40.97
11971;BME280;6045;42.682;23.294;2022-09-16T06:35:10;94151.31;;;27.89;41.31
11971;BME280;6045;42.682;23.294;2022-09-16T06:37:37;94158.75;;;27.88;41.56
11971;BME280;6045;42.682;23.294;2022-09-16T06:40:06;94159.66;;;27.92;41.45
11971;BME280;6045;42.682;23.294;2022-09-16T06:42:33;94167.22;;;28.23;40.07
11971;BME280;6045;42.682;23.294;2022-09-16T06:45:00;94167.13;;;28.78;37.34
11971;BME280;6045;42.682;23.294;2022-09-16T06:47:28;94167.84;;;29.22;36.06
11971;BME280;6045;42.682;23.294;2022-09-16T06:49:57;94170.88;;;29.52;36.27
11971;BME280;6045;42.682;23.294;2022-09-16T06:52:24;94168.28;;;30.13;36.09
11971;BME280;6045;42.682;23.294;2022-09-16T06:54:51;94177.53;;;30.62;35.67
11971;BME280;6045;42.682;23.294;2022-09-16T06:57:19;94161.63;;;31.24;34.33
11971;BME280;6045;42.682;23.294;2022-09-16T06:59:47;94161.94;;;31.41;33.22
11971;BME280;6045;42.682;23.294;2022-09-16T07:02:14;94166.78;;;31.74;34.29
11971;BME280;6045;42.682;23.294;2022-09-16T07:04:41;94173.84;;;31.98;33.19
11971;BME280;6045;42.682;23.294;2022-09-16T07:07:08;94174.19;;;31.96;34.33
11971;BME280;6045;42.682;23.294;2022-09-16T07:09:35;94170.88;;;31.87;33.95
11971;BME280;6045;42.682;23.294;2022-09-16T07:12:02;94168.47;;;31.82;33.75
11971;BME280;6045;42.682;23.294;2022-09-16T07:14:30;94177.69;;;31.93;33.53
11971;BME280;6045;42.682;23.294;2022-09-16T07:16:57;94178.00;;;32.14;32.90
11971;BME280;6045;42.682;23.294;2022-09-16T07:19:24;94170.13;;;32.16;33.96
11971;BME280;6045;42.682;23.294;2022-09-16T07:21:51;94164.34;;;32.28;33.28
11971;BME280;6045;42.682;23.294;2022-09-16T07:24:18;94168.84;;;32.43;34.08
11971;BME280;6045;42.682;23.294;2022-09-16T07:26:45;94159.50;;;32.55;33.74
11971;BME280;6045;42.682;23.294;2022-09-16T07:29:14;94165.44;;;32.54;34.25
11971;BME280;6045;42.682;23.294;2022-09-16T07:31:43;94168.19;;;32.50;32.42
11971;BME280;6045;42.682;23.294;2022-09-16T07:34:11;94161.16;;;32.60;34.36
11971;BME280;6045;42.682;23.294;2022-09-16T07:36:40;94168.63;;;32.96;32.70
11971;BME280;6045;42.682;23.294;2022-09-16T07:39:08;94164.91;;;33.18;32.73
11971;BME280;6045;42.682;23.294;2022-09-16T07:41:36;94153.88;;;33.25;32.11
11971;BME280;6045;42.682;23.294;2022-09-16T07:44:05;94138.06;;;33.29;32.32
11971;BME280;6045;42.682;23.294;2022-09-16T07:46:41;94141.03;;;33.57;32.65
11971;BME280;6045;42.682;23.294;2022-09-16T07:49:12;94146.31;;;33.80;31.11
11971;BME280;6045;42.682;23.294;2022-09-16T07:51:39;94141.38;;;34.14;29.71
11971;BME280;6045;42.682;23.294;2022-09-16T07:54:10;94141.75;;;34.16;30.45
11971;BME280;6045;42.682;23.294;2022-09-16T07:56:39;94143.78;;;34.26;30.60
11971;BME280;6045;42.682;23.294;2022-09-16T07:59:09;94139.47;;;34.35;30.68
11971;BME280;6045;42.682;23.294;2022-09-16T08:01:36;94140.28;;;34.43;29.91
11971;BME280;6045;42.682;23.294;2022-09-16T08:04:03;94137.00;;;34.16;30.87
11971;BME280;6045;42.682;23.294;2022-09-16T08:06:32;94140.03;;;33.87;30.75
11971;BME280;6045;42.682;23.294;2022-09-16T08:09:00;94128.91;;;33.80;30.37
11971;BME280;6045;42.682;23.294;2022-09-16T08:11:27;94129.53;;;33.55;32.62
11971;BME280;6045;42.682;23.294;2022-09-16T08:13:56;94123.44;;;33.32;31.22
11971;BME280;6045;42.682;23.294;2022-09-16T08:16:23;94116.28;;;33.31;31.11
11971;BME280;6045;42.682;23.294;2022-09-16T08:18:53;94114.91;;;33.58;31.73
11971;BME280;6045;42.682;23.294;2022-09-16T08:21:21;94128.53;;;33.88;29.85
11971;BME280;6045;42.682;23.294;2022-09-16T08:23:51;94110.06;;;34.17;30.58
11971;BME280;6045;42.682;23.294;2022-09-16T08:26:19;94122.00;;;34.35;29.83
11971;BME280;6045;42.682;23.294;2022-09-16T08:28:47;94117.22;;;34.25;29.25
11971;BME280;6045;42.682;23.294;2022-09-16T08:31:14;94119.81;;;33.90;30.31
11971;BME280;6045;42.682;23.294;2022-09-16T08:33:43;94107.84;;;33.68;30.93
11971;BME280;6045;42.682;23.294;2022-09-16T08:36:12;94111.59;;;33.42;30.30
11971;BME280;6045;42.682;23.294;2022-09-16T08:38:41;94109.53;;;33.29;31.42
11971;BME280;6045;42.682;23.294;2022-09-16T08:41:23;94099.19;;;33.19;31.88
11971;BME280;6045;42.682;23.294;2022-09-16T08:43:58;94095.78;;;32.95;30.30
11971;BME280;6045;42.682;23.294;2022-09-16T08:46:32;94101.09;;;32.30;32.65
11971;BME280;6045;42.682;23.294;2022-09-16T08:49:05;94097.38;;;31.53;32.66
11971;BME280;6045;42.682;23.294;2022-09-16T08:51:36;94086.81;;;31.32;33.66
11971;BME280;6045;42.682;23.294;2022-09-16T08:54:05;94089.69;;;31.13;32.94
11971;BME280;6045;42.682;23.294;2022-09-16T08:56:37;94086.94;;;30.90;34.38
11971;BME280;6045;42.682;23.294;2022-09-16T08:59:10;94088.28;;;30.77;34.87
11971;BME280;6045;42.682;23.294;2022-09-16T09:01:41;94101.78;;;30.60;35.90
11971;BME280;6045;42.682;23.294;2022-09-16T09:04:13;94098.72;;;30.42;35.99
11971;BME280;6045;42.682;23.294;2022-09-16T09:06:53;94100.47;;;30.31;36.20
11971;BME280;6045;42.682;23.294;2022-09-16T09:09:30;94095.25;;;30.26;36.33
11971;BME280;6045;42.682;23.294;2022-09-16T09:12:06;94097.28;;;30.29;36.53
11971;BME280;6045;42.682;23.294;2022-09-16T09:14:46;94101.56;;;30.26;37.26
11971;BME280;6045;42.682;23.294;2022-09-16T09:17:27;94106.06;;;30.34;37.44
11971;BME280;6045;42.682;23.294;2022-09-16T09:20:02;94103.16;;;30.47;37.75
11971;BME280;6045;42.682;23.294;2022-09-16T09:22:49;94104.06;;;30.54;37.48
11971;BME280;6045;42.682;23.294;2022-09-16T09:25:22;94098.41;;;30.70;36.60
11971;BME280;6045;42.682;23.294;2022-09-16T09:28:03;94087.13;;;30.78;36.88
11971;BME280;6045;42.682;23.294;2022-09-16T09:30:33;94086.88;;;30.87;36.85
11971;BME280;6045;42.682;23.294;2022-09-16T09:33:15;94090.38;;;30.84;36.97
11971;BME280;6045;42.682;23.294;2022-09-16T09:36:02;94084.13;;;30.87;37.17
11971;BME280;6045;42.682;23.294;2022-09-16T09:38:49;94094.66;;;30.81;37.42
11971;BME280;6045;42.682;23.294;2022-09-16T09:41:23;94096.97;;;30.76;37.69
11971;BME280;6045;42.682;23.294;2022-09-16T09:43:56;94101.44;;;30.61;37.91
11971;BME280;6045;42.682;23.294;2022-09-16T09:46:31;94110.75;;;30.53;38.20
11971;BME280;6045;42.682;23.294;2022-09-16T09:49:07;94117.19;;;30.38;37.90
11971;BME280;6045;42.682;23.294;2022-09-16T09:51:37;94111.38;;;30.24;37.42
11971;BME280;6045;42.682;23.294;2022-09-16T09:54:20;94114.59;;;30.07;39.45
11971;BME280;6045;42.682;23.294;2022-09-16T09:56:54;94119.75;;;29.89;39.39
11971;BME280;6045;42.682;23.294;2022-09-16T09:59:29;94133.13;;;29.71;39.40
11971;BME280;6045;42.682;23.294;2022-09-16T10:01:58;94143.00;;;29.53;40.19
11971;BME280;6045;42.682;23.294;2022-09-16T10:04:26;94148.28;;;29.27;41.08
11971;BME280;6045;42.682;23.294;2022-09-16T10:06:57;94159.13;;;29.04;42.23
11971;BME280;6045;42.682;23.294;2022-09-16T10:09:24;94166.53;;;28.85;43.33
11971;BME280;6045;42.682;23.294;2022-09-16T10:11:52;94177.88;;;28.68;44.54
11971;BME280;6045;42.682;23.294;2022-09-16T10:14:28;94185.22;;;28.36;45.08
11971;BME280;6045;42.682;23.294;2022-09-16T10:16:59;94188.00;;;28.08;45.81
11971;BME280;6045;42.682;23.294;2022-09-16T10:19:28;94214.25;;;27.94;48.21
11971;BME280;6045;42.682;23.294;2022-09-16T10:22:08;94249.69;;;27.59;48.67
11971;BME280;6045;42.682;23.294;2022-09-16T10:24:37;94275.41;;;27.06;51.16
11971;BME280;6045;42.682;23.294;2022-09-16T10:27:18;94271.22;;;26.43;53.20
11971;BME280;6045;42.682;23.294;2022-09-16T10:29:47;94304.88;;;26.11;54.30
11971;BME280;6045;42.682;23.294;2022-09-16T10:32:16;94317.00;;;25.51;57.14
11971;BME280;6045;42.682;23.294;2022-09-16T10:34:45;94324.69;;;24.65;57.39
11971;BME280;6045;42.682;23.294;2022-09-16T10:37:16;94329.84;;;24.41;59.61
11971;BME280;6045;42.682;23.294;2022-09-16T10:39:50;94341.44;;;24.29;61.41
11971;BME280;6045;42.682;23.294;2022-09-16T10:42:19;94346.69;;;23.83;62.61
11971;BME280;6045;42.682;23.294;2022-09-16T10:44:49;94347.88;;;23.51;64.48
11971;BME280;6045;42.682;23.294;2022-09-16T10:47:19;94344.81;;;23.36;65.42
11971;BME280;6045;42.682;23.294;2022-09-16T10:49:49;94336.25;;;23.29;65.85
11971;BME280;6045;42.682;23.294;2022-09-16T10:52:17;94337.13;;;23.07;67.15
11971;BME280;6045;42.682;23.294;2022-09-16T10:54:46;94340.06;;;23.28;67.53
11971;BME280;6045;42.682;23.294;2022-09-16T10:57:27;94316.53;;;23.32;65.97
11971;BME280;6045;42.682;23.294;2022-09-16T10:59:58;94294.50;;;23.20;70.10
11971;BME280;6045;42.682;23.294;2022-09-16T11:02:49;94283.88;;;23.09;67.53
11971;BME280;6045;42.682;23.294;2022-09-16T11:05:24;94269.41;;;23.00;67.69
11971;BME280;6045;42.682;23.294;2022-09-16T11:08:02;94260.69;;;22.81;66.71
11971;BME280;6045;42.682;23.294;2022-09-16T11:10:38;94239.41;;;23.00;66.37
11971;BME280;6045;42.682;23.294;2022-09-16T11:13:24;94210.31;;;23.35;65.92
11971;BME280;6045;42.682;23.294;2022-09-16T11:16:15;94191.69;;;24.23;62.49
11971;BME280;6045;42.682;23.294;2022-09-16T11:18:55;94182.75;;;25.68;57.87
11971;BME280;6045;42.682;23.294;2022-09-16T11:22:02;94166.78;;;26.93;53.01
11971;BME280;6045;42.682;23.294;2022-09-16T11:25:05;94163.91;;;26.65;51.65
11971;BME280;6045;42.682;23.294;2022-09-16T11:27:44;94149.25;;;26.49;51.90
11971;BME280;6045;42.682;23.294;2022-09-16T11:30:20;94147.59;;;26.12;51.41
11971;BME280;6045;42.682;23.294;2022-09-16T11:33:05;94128.19;;;25.43;51.31
11971;BME280;6045;42.682;23.294;2022-09-16T11:35:46;94136.19;;;25.27;52.48
11971;BME280;6045;42.682;23.294;2022-09-16T11:38:26;94129.19;;;25.38;51.93
11971;BME280;6045;42.682;23.294;2022-09-16T11:41:09;94123.75;;;25.09;51.45
11971;BME280;6045;42.682;23.294;2022-09-16T11:44:14;94129.47;;;25.45;52.50
11971;BME280;6045;42.682;23.294;2022-09-16T11:46:55;94112.13;;;25.95;50.36
11971;BME280;6045;42.682;23.294;2022-09-16T11:49:45;94117.84;;;26.46;51.05
11971;BME280;6045;42.682;23.294;2022-09-16T11:52:27;94117.97;;;27.10;49.14
11971;BME280;6045;42.682;23.294;2022-09-16T11:55:17;94106.16;;;27.74;46.00
11971;BME280;6045;42.682;23.294;2022-09-16T11:57:50;94098.56;;;27.83;45.01
11971;BME280;6045;42.682;23.294;2022-09-16T12:00:18;94096.91;;;27.94;44.84
11971;BME280;6045;42.682;23.294;2022-09-16T12:02:51;94093.41;;;28.09;44.25
11971;BME280;6045;42.682;23.294;2022-09-16T12:05:25;94095.66;;;28.35;44.11
11971;BME280;6045;42.682;23.294;2022-09-16T12:08:00;94092.91;;;28.51;43.21
11971;BME280;6045;42.682;23.294;2022-09-16T12:10:32;94095.59;;;29.29;44.44
11971;BME280;6045;42.682;23.294;2022-09-16T12:13:05;94104.16;;;29.77;43.42
11971;BME280;6045;42.682;23.294;2022-09-16T12:15:36;94113.25;;;30.20;44.59
11971;BME280;6045;42.682;23.294;2022-09-16T12:18:08;94113.72;;;30.22;44.58
11971;BME280;6045;42.682;23.294;2022-09-16T12:20:41;94117.22;;;29.81;45.14
11971;BME280;6045;42.682;23.294;2022-09-16T12:23:14;94120.59;;;29.20;46.44
11971;BME280;6045;42.682;23.294;2022-09-16T12:25:46;94108.91;;;28.92;47.51
11971;BME280;6045;42.682;23.294;2022-09-16T12:28:25;94122.16;;;28.43;48.89
11971;BME280;6045;42.682;23.294;2022-09-16T12:31:02;94122.88;;;27.97;50.14
11971;BME280;6045;42.682;23.294;2022-09-16T12:33:33;94124.56;;;27.73;50.89
11971;BME280;6045;42.682;23.294;2022-09-16T12:36:06;94115.06;;;27.43;51.90
11971;BME280;6045;42.682;23.294;2022-09-16T12:38:34;94122.72;;;27.26;52.89
11971;BME280;6045;42.682;23.294;2022-09-16T12:41:11;94133.78;;;26.89;54.05
11971;BME280;6045;42.682;23.294;2022-09-16T12:44:03;94127.84;;;26.75;54.80
11971;BME280;6045;42.682;23.294;2022-09-16T12:46:48;94145.38;;;26.62;55.05
11971;BME280;6045;42.682;23.294;2022-09-16T12:49:45;94157.47;;;26.49;56.08
11971;BME280;6045;42.682;23.294;2022-09-16T12:52:28;94160.47;;;26.56;56.72
11971;BME280;6045;42.682;23.294;2022-09-16T12:58:21;94183.75;;;26.62;56.67
11971;BME280;6045;42.682;23.294;2022-09-16T13:00:56;94200.44;;;26.57;56.01
11971;BME280;6045;42.682;23.294;2022-09-16T13:03:30;94204.75;;;26.46;56.79
11971;BME280;6045;42.682;23.294;2022-09-16T13:06:20;94205.53;;;26.34;57.93
11971;BME280;6045;42.682;23.294;2022-09-16T13:08:50;94225.47;;;26.23;58.17
11971;BME280;6045;42.682;23.294;2022-09-16T13:11:20;94232.22;;;26.25;58.77
11971;BME280;6045;42.682;23.294;2022-09-16T13:13:49;94236.84;;;26.13;59.86
11971;BME280;6045;42.682;23.294;2022-09-16T13:16:27;94254.28;;;26.08;60.48
11971;BME280;6045;42.682;23.294;2022-09-16T13:19:14;94254.16;;;26.05;61.64
11971;BME280;6045;42.682;23.294;2022-09-16T13:21:47;94250.47;;;26.01;61.65
11971;BME280;6045;42.682;23.294;2022-09-16T13:24:23;94256.63;;;25.98;62.39
11971;BME280;6045;42.682;23.294;2022-09-16T13:26:50;94244.72;;;25.94;62.80
11971;BME280;6045;42.682;23.294;2022-09-16T13:29:28;94242.03;;;26.06;64.07